Main page
METAR-TAF:

METAR-TAF

Airports :

Nouakchott, Mauritania

Nouakchott–Oumtounsy International Airport

latitude: 18-18-36N, longitude: 015-58-11W, elevation: 3 m

Current weather observation

The report was made 40 minutes ago, at 18:30 UTC
Wind 13 kt from the Northeast
Temperature 25°C
Humidity 24%
Pressure 1015 hPa
Visibility: 8000 m

METAR: GQNO 191830Z 04013KT 8000 NSC 25/03 Q1015 NOSIG

Time: 19:10 (19:10 UTC)

Forecast

The report was made 2 hours and 10 minutes ago, at 17:00 UTC
Forecast valid from 19 at 18 UTC to 20 at 24 UTC
Wind 12 kt from the Northeast
Visibility: 8000 m

TAF: GQNO 191700Z 1918/2024 04012KT 8000 NSC

Weather observations and forecasts of more than 4000 airports (METAR and TAF reports).

The available stations are represented by yellow and red dots on the map.

Hover mouse over dot to see the name of the station.

Then click to see weather observations and forecasts.

To change the map : click on the green buttons with a black cross to zoom in, on the green button with a dash to zoom out, or on the green arrows for adjacent maps.


METAR-TAF: